sensor_id;sensor_type;location;lat;lon;timestamp;P1;durP1;ratioP1;P2;durP2;ratioP2
13250;SDS011;6692;50.710;7.180;2024-01-30T00:00:14;8.40;;;7.60;;
13250;SDS011;6692;50.710;7.180;2024-01-30T00:02:16;8.40;;;7.50;;
13250;SDS011;6692;50.710;7.180;2024-01-30T00:04:17;8.07;;;7.27;;
13250;SDS011;6692;50.710;7.180;2024-01-30T00:06:18;9.80;;;8.80;;
13250;SDS011;6692;50.710;7.180;2024-01-30T00:08:19;12.13;;;9.20;;
13250;SDS011;6692;50.710;7.180;2024-01-30T00:10:19;8.97;;;8.13;;
13250;SDS011;6692;50.710;7.180;2024-01-30T00:12:20;9.57;;;7.63;;
13250;SDS011;6692;50.710;7.180;2024-01-30T00:14:21;8.20;;;7.37;;
13250;SDS011;6692;50.710;7.180;2024-01-30T00:16:22;8.27;;;7.33;;
13250;SDS011;6692;50.710;7.180;2024-01-30T00:18:22;8.43;;;7.23;;
13250;SDS011;6692;50.710;7.180;2024-01-30T00:20:23;8.83;;;7.30;;
13250;SDS011;6692;50.710;7.180;2024-01-30T00:22:24;8.63;;;7.30;;
13250;SDS011;6692;50.710;7.180;2024-01-30T00:24:25;9.30;;;8.33;;
13250;SDS011;6692;50.710;7.180;2024-01-30T00:26:25;10.97;;;7.83;;
13250;SDS011;6692;50.710;7.180;2024-01-30T00:28:26;9.60;;;8.20;;
13250;SDS011;6692;50.710;7.180;2024-01-30T00:30:27;9.23;;;8.40;;
13250;SDS011;6692;50.710;7.180;2024-01-30T00:32:27;8.97;;;7.40;;
13250;SDS011;6692;50.710;7.180;2024-01-30T00:34:29;8.90;;;7.53;;
13250;SDS011;6692;50.710;7.180;2024-01-30T00:36:29;8.40;;;7.60;;
13250;SDS011;6692;50.710;7.180;2024-01-30T00:38:30;7.93;;;7.13;;
13250;SDS011;6692;50.710;7.180;2024-01-30T00:40:31;7.27;;;6.57;;
13250;SDS011;6692;50.710;7.180;2024-01-30T00:42:32;7.07;;;6.37;;
13250;SDS011;6692;50.710;7.180;2024-01-30T00:44:34;7.40;;;6.43;;
13250;SDS011;6692;50.710;7.180;2024-01-30T00:46:33;7.67;;;6.80;;
13250;SDS011;6692;50.710;7.180;2024-01-30T00:48:34;7.23;;;6.53;;
13250;SDS011;6692;50.710;7.180;2024-01-30T00:50:35;8.20;;;6.67;;
13250;SDS011;6692;50.710;7.180;2024-01-30T00:52:36;10.33;;;7.53;;
13250;SDS011;6692;50.710;7.180;2024-01-30T00:54:37;7.93;;;7.13;;
13250;SDS011;6692;50.710;7.180;2024-01-30T00:56:37;7.80;;;7.00;;
13250;SDS011;6692;50.710;7.180;2024-01-30T00:58:38;6.90;;;6.20;;
13250;SDS011;6692;50.710;7.180;2024-01-30T01:00:39;7.67;;;6.97;;
13250;SDS011;6692;50.710;7.180;2024-01-30T01:02:40;7.50;;;6.20;;
13250;SDS011;6692;50.710;7.180;2024-01-30T01:06:54;7.27;;;6.57;;
13250;SDS011;6692;50.710;7.180;2024-01-30T01:08:55;7.80;;;6.27;;
13250;SDS011;6692;50.710;7.180;2024-01-30T01:10:56;7.20;;;6.47;;
13250;SDS011;6692;50.710;7.180;2024-01-30T01:12:56;7.50;;;6.80;;
13250;SDS011;6692;50.710;7.180;2024-01-30T01:14:58;6.90;;;6.13;;
13250;SDS011;6692;50.710;7.180;2024-01-30T01:16:59;7.90;;;6.77;;
13250;SDS011;6692;50.710;7.180;2024-01-30T01:18:59;7.30;;;6.53;;
13250;SDS011;6692;50.710;7.180;2024-01-30T01:21:01;8.23;;;6.50;;
13250;SDS011;6692;50.710;7.180;2024-01-30T01:23:02;7.77;;;6.47;;
13250;SDS011;6692;50.710;7.180;2024-01-30T01:25:03;8.03;;;6.87;;
13250;SDS011;6692;50.710;7.180;2024-01-30T01:27:04;7.13;;;6.43;;
13250;SDS011;6692;50.710;7.180;2024-01-30T01:29:05;8.63;;;6.93;;
13250;SDS011;6692;50.710;7.180;2024-01-30T01:31:05;7.67;;;6.87;;
13250;SDS011;6692;50.710;7.180;2024-01-30T01:33:06;6.90;;;6.30;;
13250;SDS011;6692;50.710;7.180;2024-01-30T01:35:06;8.10;;;7.30;;
13250;SDS011;6692;50.710;7.180;2024-01-30T01:37:07;7.90;;;7.10;;
13250;SDS011;6692;50.710;7.180;2024-01-30T01:39:08;12.60;;;9.57;;
13250;SDS011;6692;50.710;7.180;2024-01-30T01:41:09;11.17;;;9.97;;
13250;SDS011;6692;50.710;7.180;2024-01-30T01:43:09;11.67;;;9.37;;
13250;SDS011;6692;50.710;7.180;2024-01-30T01:45:10;11.57;;;10.10;;
13250;SDS011;6692;50.710;7.180;2024-01-30T01:47:11;10.50;;;9.07;;
13250;SDS011;6692;50.710;7.180;2024-01-30T01:49:11;11.47;;;9.40;;
13250;SDS011;6692;50.710;7.180;2024-01-30T01:51:12;10.00;;;8.73;;
13250;SDS011;6692;50.710;7.180;2024-01-30T01:53:14;13.90;;;10.00;;
13250;SDS011;6692;50.710;7.180;2024-01-30T01:55:15;8.83;;;7.93;;
13250;SDS011;6692;50.710;7.180;2024-01-30T01:57:15;10.37;;;9.27;;
13250;SDS011;6692;50.710;7.180;2024-01-30T01:59:16;9.90;;;8.90;;
13250;SDS011;6692;50.710;7.180;2024-01-30T02:01:18;9.00;;;8.10;;
13250;SDS011;6692;50.710;7.180;2024-01-30T02:03:17;9.87;;;8.43;;
13250;SDS011;6692;50.710;7.180;2024-01-30T02:05:18;10.03;;;8.10;;
13250;SDS011;6692;50.710;7.180;2024-01-30T02:07:19;9.07;;;7.90;;
13250;SDS011;6692;50.710;7.180;2024-01-30T02:09:19;9.07;;;8.00;;
13250;SDS011;6692;50.710;7.180;2024-01-30T02:11:21;8.87;;;7.97;;
13250;SDS011;6692;50.710;7.180;2024-01-30T02:13:21;8.90;;;8.00;;
13250;SDS011;6692;50.710;7.180;2024-01-30T02:15:21;9.60;;;7.63;;
13250;SDS011;6692;50.710;7.180;2024-01-30T02:17:23;9.00;;;8.10;;
13250;SDS011;6692;50.710;7.180;2024-01-30T02:19:23;8.57;;;7.77;;
13250;SDS011;6692;50.710;7.180;2024-01-30T02:21:24;8.03;;;7.10;;
13250;SDS011;6692;50.710;7.180;2024-01-30T02:23:24;8.60;;;7.40;;
13250;SDS011;6692;50.710;7.180;2024-01-30T02:25:32;8.63;;;7.40;;
13250;SDS011;6692;50.710;7.180;2024-01-30T02:27:34;8.60;;;7.23;;
13250;SDS011;6692;50.710;7.180;2024-01-30T02:29:35;10.87;;;8.90;;
13250;SDS011;6692;50.710;7.180;2024-01-30T02:31:36;8.53;;;7.23;;
13250;SDS011;6692;50.710;7.180;2024-01-30T02:33:36;8.40;;;6.93;;
13250;SDS011;6692;50.710;7.180;2024-01-30T02:35:37;8.40;;;7.40;;
13250;SDS011;6692;50.710;7.180;2024-01-30T02:37:38;8.27;;;7.10;;
13250;SDS011;6692;50.710;7.180;2024-01-30T02:39:39;8.07;;;7.27;;
13250;SDS011;6692;50.710;7.180;2024-01-30T02:41:39;8.80;;;7.47;;
13250;SDS011;6692;50.710;7.180;2024-01-30T02:43:40;8.07;;;7.27;;
13250;SDS011;6692;50.710;7.180;2024-01-30T02:45:41;8.47;;;7.57;;
13250;SDS011;6692;50.710;7.180;2024-01-30T02:47:41;8.93;;;7.40;;
13250;SDS011;6692;50.710;7.180;2024-01-30T02:49:43;10.27;;;8.30;;
13250;SDS011;6692;50.710;7.180;2024-01-30T02:51:44;9.67;;;7.97;;
13250;SDS011;6692;50.710;7.180;2024-01-30T02:53:44;9.23;;;8.13;;
13250;SDS011;6692;50.710;7.180;2024-01-30T02:55:45;9.10;;;7.83;;
13250;SDS011;6692;50.710;7.180;2024-01-30T02:57:46;8.40;;;7.50;;
13250;SDS011;6692;50.710;7.180;2024-01-30T02:59:46;8.53;;;7.63;;
13250;SDS011;6692;50.710;7.180;2024-01-30T03:01:47;9.93;;;7.90;;
13250;SDS011;6692;50.710;7.180;2024-01-30T03:03:48;8.33;;;7.27;;
13250;SDS011;6692;50.710;7.180;2024-01-30T03:05:48;8.73;;;7.40;;
13250;SDS011;6692;50.710;7.180;2024-01-30T03:07:49;8.73;;;7.67;;
13250;SDS011;6692;50.710;7.180;2024-01-30T03:09:50;9.67;;;8.27;;
13250;SDS011;6692;50.710;7.180;2024-01-30T03:11:51;8.23;;;7.43;;
13250;SDS011;6692;50.710;7.180;2024-01-30T03:13:52;10.93;;;7.70;;
13250;SDS011;6692;50.710;7.180;2024-01-30T03:15:53;8.83;;;7.93;;
13250;SDS011;6692;50.710;7.180;2024-01-30T03:17:54;8.07;;;7.27;;
13250;SDS011;6692;50.710;7.180;2024-01-30T03:19:54;8.70;;;7.53;;
13250;SDS011;6692;50.710;7.180;2024-01-30T03:21:55;9.00;;;7.77;;
13250;SDS011;6692;50.710;7.180;2024-01-30T03:23:56;8.20;;;7.03;;
13250;SDS011;6692;50.710;7.180;2024-01-30T03:25:56;8.07;;;7.13;;
13250;SDS011;6692;50.710;7.180;2024-01-30T03:27:57;8.10;;;7.30;;
13250;SDS011;6692;50.710;7.180;2024-01-30T03:29:58;9.50;;;8.50;;
13250;SDS011;6692;50.710;7.180;2024-01-30T03:31:59;8.77;;;7.73;;
13250;SDS011;6692;50.710;7.180;2024-01-30T03:34:00;9.37;;;8.37;;
13250;SDS011;6692;50.710;7.180;2024-01-30T03:36:03;8.33;;;7.43;;
13250;SDS011;6692;50.710;7.180;2024-01-30T03:38:03;7.47;;;6.73;;
13250;SDS011;6692;50.710;7.180;2024-01-30T03:40:04;8.77;;;7.07;;
13250;SDS011;6692;50.710;7.180;2024-01-30T03:42:05;7.77;;;6.97;;
13250;SDS011;6692;50.710;7.180;2024-01-30T03:44:06;7.87;;;6.70;;
13250;SDS011;6692;50.710;7.180;2024-01-30T03:46:08;7.27;;;6.57;;
13250;SDS011;6692;50.710;7.180;2024-01-30T03:48:08;7.67;;;6.87;;
13250;SDS011;6692;50.710;7.180;2024-01-30T03:50:10;8.00;;;7.13;;
13250;SDS011;6692;50.710;7.180;2024-01-30T03:52:11;7.00;;;6.30;;
13250;SDS011;6692;50.710;7.180;2024-01-30T03:54:11;7.87;;;6.70;;
13250;SDS011;6692;50.710;7.180;2024-01-30T03:56:13;8.07;;;7.33;;
13250;SDS011;6692;50.710;7.180;2024-01-30T03:58:14;7.40;;;6.60;;
13250;SDS011;6692;50.710;7.180;2024-01-30T04:00:14;7.90;;;6.97;;
13250;SDS011;6692;50.710;7.180;2024-01-30T04:02:15;7.77;;;6.97;;
13250;SDS011;6692;50.710;7.180;2024-01-30T04:04:17;6.87;;;6.17;;
13250;SDS011;6692;50.710;7.180;2024-01-30T04:06:17;7.23;;;6.50;;
13250;SDS011;6692;50.710;7.180;2024-01-30T04:08:18;6.70;;;6.00;;
13250;SDS011;6692;50.710;7.180;2024-01-30T04:10:18;8.00;;;7.20;;
13250;SDS011;6692;50.710;7.180;2024-01-30T04:12:20;8.13;;;6.57;;
13250;SDS011;6692;50.710;7.180;2024-01-30T04:14:21;8.10;;;6.67;;
13250;SDS011;6692;50.710;7.180;2024-01-30T04:16:22;7.37;;;6.27;;
13250;SDS011;6692;50.710;7.180;2024-01-30T04:18:23;6.97;;;6.27;;
13250;SDS011;6692;50.710;7.180;2024-01-30T04:20:24;7.27;;;6.50;;
13250;SDS011;6692;50.710;7.180;2024-01-30T04:22:24;8.77;;;6.90;;
13250;SDS011;6692;50.710;7.180;2024-01-30T04:24:25;7.93;;;6.83;;
13250;SDS011;6692;50.710;7.180;2024-01-30T04:26:26;7.77;;;6.77;;
13250;SDS011;6692;50.710;7.180;2024-01-30T04:28:28;7.40;;;6.70;;
13250;SDS011;6692;50.710;7.180;2024-01-30T04:30:29;7.97;;;7.17;;
13250;SDS011;6692;50.710;7.180;2024-01-30T04:32:30;7.97;;;7.17;;
13250;SDS011;6692;50.710;7.180;2024-01-30T04:34:30;8.47;;;7.57;;
13250;SDS011;6692;50.710;7.180;2024-01-30T04:36:31;7.93;;;6.67;;
13250;SDS011;6692;50.710;7.180;2024-01-30T04:38:32;8.57;;;7.10;;
13250;SDS011;6692;50.710;7.180;2024-01-30T04:40:33;8.23;;;7.43;;
13250;SDS011;6692;50.710;7.180;2024-01-30T04:42:33;8.80;;;7.07;;
13250;SDS011;6692;50.710;7.180;2024-01-30T04:44:34;7.73;;;6.93;;
13250;SDS011;6692;50.710;7.180;2024-01-30T04:46:35;8.63;;;7.43;;
13250;SDS011;6692;50.710;7.180;2024-01-30T04:48:35;8.33;;;7.43;;
13250;SDS011;6692;50.710;7.180;2024-01-30T04:50:36;9.27;;;8.23;;
13250;SDS011;6692;50.710;7.180;2024-01-30T04:52:38;7.90;;;7.10;;
13250;SDS011;6692;50.710;7.180;2024-01-30T04:54:39;8.85;;;7.93;;
13250;SDS011;6692;50.710;7.180;2024-01-30T04:56:39;9.30;;;7.53;;
13250;SDS011;6692;50.710;7.180;2024-01-30T04:58:40;8.17;;;7.33;;
13250;SDS011;6692;50.710;7.180;2024-01-30T05:00:41;7.50;;;6.80;;
13250;SDS011;6692;50.710;7.180;2024-01-30T05:02:42;8.00;;;7.20;;
13250;SDS011;6692;50.710;7.180;2024-01-30T05:04:43;7.73;;;6.93;;
13250;SDS011;6692;50.710;7.180;2024-01-30T05:06:44;7.63;;;6.90;;
13250;SDS011;6692;50.710;7.180;2024-01-30T05:08:45;8.50;;;6.87;;
13250;SDS011;6692;50.710;7.180;2024-01-30T05:10:46;8.33;;;7.43;;
13250;SDS011;6692;50.710;7.180;2024-01-30T05:12:47;7.33;;;6.33;;
13250;SDS011;6692;50.710;7.180;2024-01-30T05:14:48;6.67;;;6.00;;
13250;SDS011;6692;50.710;7.180;2024-01-30T05:16:49;6.90;;;6.10;;
13250;SDS011;6692;50.710;7.180;2024-01-30T05:18:51;11.15;;;8.40;;
13250;SDS011;6692;50.710;7.180;2024-01-30T05:20:52;10.40;;;7.60;;
13250;SDS011;6692;50.710;7.180;2024-01-30T05:22:53;9.40;;;8.23;;
13250;SDS011;6692;50.710;7.180;2024-01-30T05:24:53;8.47;;;7.57;;
13250;SDS011;6692;50.710;7.180;2024-01-30T05:26:54;9.53;;;7.73;;
13250;SDS011;6692;50.710;7.180;2024-01-30T05:28:56;8.63;;;7.63;;
13250;SDS011;6692;50.710;7.180;2024-01-30T05:30:57;8.23;;;6.90;;
13250;SDS011;6692;50.710;7.180;2024-01-30T05:32:58;8.53;;;7.57;;
13250;SDS011;6692;50.710;7.180;2024-01-30T05:34:59;7.17;;;6.47;;
13250;SDS011;6692;50.710;7.180;2024-01-30T05:36:59;7.43;;;6.60;;
13250;SDS011;6692;50.710;7.180;2024-01-30T05:39:00;7.47;;;6.50;;
13250;SDS011;6692;50.710;7.180;2024-01-30T05:41:01;8.83;;;7.73;;
13250;SDS011;6692;50.710;7.180;2024-01-30T05:43:01;8.60;;;7.70;;
13250;SDS011;6692;50.710;7.180;2024-01-30T05:45:02;8.83;;;7.93;;
13250;SDS011;6692;50.710;7.180;2024-01-30T05:47:04;9.30;;;8.40;;
13250;SDS011;6692;50.710;7.180;2024-01-30T05:49:04;10.70;;;8.70;;
13250;SDS011;6692;50.710;7.180;2024-01-30T05:51:06;9.77;;;8.57;;
13250;SDS011;6692;50.710;7.180;2024-01-30T05:53:06;10.13;;;8.53;;
13250;SDS011;6692;50.710;7.180;2024-01-30T05:55:07;8.73;;;7.82;;
13250;SDS011;6692;50.710;7.180;2024-01-30T05:57:09;9.70;;;7.97;;
13250;SDS011;6692;50.710;7.180;2024-01-30T05:59:10;8.63;;;7.73;;
13250;SDS011;6692;50.710;7.180;2024-01-30T06:01:10;8.93;;;8.03;;
13250;SDS011;6692;50.710;7.180;2024-01-30T06:03:11;8.83;;;7.90;;
13250;SDS011;6692;50.710;7.180;2024-01-30T06:05:12;8.07;;;7.23;;
13250;SDS011;6692;50.710;7.180;2024-01-30T06:07:12;10.00;;;7.60;;
13250;SDS011;6692;50.710;7.180;2024-01-30T06:09:13;7.87;;;7.10;;
13250;SDS011;6692;50.710;7.180;2024-01-30T06:11:15;7.97;;;7.17;;
13250;SDS011;6692;50.710;7.180;2024-01-30T06:13:15;7.77;;;7.00;;
13250;SDS011;6692;50.710;7.180;2024-01-30T06:15:16;9.13;;;7.20;;
13250;SDS011;6692;50.710;7.180;2024-01-30T06:17:17;7.60;;;6.80;;
13250;SDS011;6692;50.710;7.180;2024-01-30T06:19:18;7.87;;;7.07;;
13250;SDS011;6692;50.710;7.180;2024-01-30T06:21:19;7.57;;;6.50;;
13250;SDS011;6692;50.710;7.180;2024-01-30T06:23:20;7.17;;;6.47;;
13250;SDS011;6692;50.710;7.180;2024-01-30T06:25:21;7.83;;;7.03;;
13250;SDS011;6692;50.710;7.180;2024-01-30T06:27:22;7.70;;;6.90;;
13250;SDS011;6692;50.710;7.180;2024-01-30T06:29:22;8.87;;;7.00;;
13250;SDS011;6692;50.710;7.180;2024-01-30T06:31:23;8.53;;;7.63;;
13250;SDS011;6692;50.710;7.180;2024-01-30T06:33:24;8.63;;;7.73;;
13250;SDS011;6692;50.710;7.180;2024-01-30T06:35:24;8.30;;;7.37;;
13250;SDS011;6692;50.710;7.180;2024-01-30T06:37:25;8.90;;;8.00;;
13250;SDS011;6692;50.710;7.180;2024-01-30T06:39:26;8.33;;;7.03;;
13250;SDS011;6692;50.710;7.180;2024-01-30T06:41:27;9.80;;;8.80;;
13250;SDS011;6692;50.710;7.180;2024-01-30T06:43:28;10.10;;;8.57;;
13250;SDS011;6692;50.710;7.180;2024-01-30T06:45:29;10.00;;;8.80;;
13250;SDS011;6692;50.710;7.180;2024-01-30T06:47:29;10.33;;;8.83;;
13250;SDS011;6692;50.710;7.180;2024-01-30T06:49:30;10.63;;;8.93;;
13250;SDS011;6692;50.710;7.180;2024-01-30T06:51:31;10.83;;;9.03;;
13250;SDS011;6692;50.710;7.180;2024-01-30T06:53:31;10.40;;;8.63;;
13250;SDS011;6692;50.710;7.180;2024-01-30T06:55:32;8.50;;;7.63;;
13250;SDS011;6692;50.710;7.180;2024-01-30T06:57:33;9.33;;;8.40;;
13250;SDS011;6692;50.710;7.180;2024-01-30T06:59:34;9.43;;;7.87;;
13250;SDS011;6692;50.710;7.180;2024-01-30T07:01:34;10.77;;;8.03;;
13250;SDS011;6692;50.710;7.180;2024-01-30T07:03:35;8.27;;;7.47;;
13250;SDS011;6692;50.710;7.180;2024-01-30T07:05:36;9.77;;;8.13;;
13250;SDS011;6692;50.710;7.180;2024-01-30T07:07:36;9.93;;;8.47;;
13250;SDS011;6692;50.710;7.180;2024-01-30T07:09:38;9.10;;;8.07;;
13250;SDS011;6692;50.710;7.180;2024-01-30T07:11:38;9.57;;;8.57;;
13250;SDS011;6692;50.710;7.180;2024-01-30T07:13:39;8.40;;;7.50;;
13250;SDS011;6692;50.710;7.180;2024-01-30T07:15:41;7.90;;;7.03;;
13250;SDS011;6692;50.710;7.180;2024-01-30T07:17:41;8.27;;;7.23;;
13250;SDS011;6692;50.710;7.180;2024-01-30T07:19:42;8.73;;;7.80;;
13250;SDS011;6692;50.710;7.180;2024-01-30T07:21:43;10.27;;;8.57;;
13250;SDS011;6692;50.710;7.180;2024-01-30T07:23:44;8.70;;;7.80;;
13250;SDS011;6692;50.710;7.180;2024-01-30T07:25:45;8.80;;;7.93;;
13250;SDS011;6692;50.710;7.180;2024-01-30T07:27:45;9.23;;;8.00;;
13250;SDS011;6692;50.710;7.180;2024-01-30T07:29:46;8.90;;;7.77;;
13250;SDS011;6692;50.710;7.180;2024-01-30T07:31:47;9.70;;;8.40;;
13250;SDS011;6692;50.710;7.180;2024-01-30T07:33:48;10.20;;;9.17;;
13250;SDS011;6692;50.710;7.180;2024-01-30T07:35:49;9.90;;;8.27;;
13250;SDS011;6692;50.710;7.180;2024-01-30T07:37:50;15.93;;;10.73;;
13250;SDS011;6692;50.710;7.180;2024-01-30T07:39:50;10.83;;;9.50;;
13250;SDS011;6692;50.710;7.180;2024-01-30T07:41:51;11.57;;;9.40;;
13250;SDS011;6692;50.710;7.180;2024-01-30T07:43:52;13.67;;;11.10;;
13250;SDS011;6692;50.710;7.180;2024-01-30T07:45:53;12.83;;;10.10;;
13250;SDS011;6692;50.710;7.180;2024-01-30T07:47:54;11.67;;;10.17;;
13250;SDS011;6692;50.710;7.180;2024-01-30T07:49:54;11.60;;;9.73;;
13250;SDS011;6692;50.710;7.180;2024-01-30T07:51:55;11.33;;;10.13;;
13250;SDS011;6692;50.710;7.180;2024-01-30T07:53:57;12.87;;;11.47;;
13250;SDS011;6692;50.710;7.180;2024-01-30T07:55:57;12.67;;;10.50;;
13250;SDS011;6692;50.710;7.180;2024-01-30T07:57:58;14.80;;;11.83;;
13250;SDS011;6692;50.710;7.180;2024-01-30T08:00:00;13.47;;;11.60;;
13250;SDS011;6692;50.710;7.180;2024-01-30T08:02:00;14.00;;;12.13;;
13250;SDS011;6692;50.710;7.180;2024-01-30T08:04:02;13.67;;;11.93;;
13250;SDS011;6692;50.710;7.180;2024-01-30T08:06:03;16.30;;;13.53;;
13250;SDS011;6692;50.710;7.180;2024-01-30T08:18:08;18.23;;;14.20;;
13250;SDS011;6692;50.710;7.180;2024-01-30T08:20:09;20.53;;;15.20;;
13250;SDS011;6692;50.710;7.180;2024-01-30T08:22:11;20.03;;;14.30;;
13250;SDS011;6692;50.710;7.180;2024-01-30T08:24:11;16.17;;;13.73;;
13250;SDS011;6692;50.710;7.180;2024-01-30T08:26:13;14.97;;;12.57;;
13250;SDS011;6692;50.710;7.180;2024-01-30T08:28:14;15.37;;;12.77;;
13250;SDS011;6692;50.710;7.180;2024-01-30T08:30:14;15.60;;;13.27;;
13250;SDS011;6692;50.710;7.180;2024-01-30T08:32:15;13.50;;;11.87;;
13250;SDS011;6692;50.710;7.180;2024-01-30T08:34:16;13.83;;;12.37;;
13250;SDS011;6692;50.710;7.180;2024-01-30T08:36:16;15.93;;;12.17;;
13250;SDS011;6692;50.710;7.180;2024-01-30T08:38:17;13.90;;;12.03;;
13250;SDS011;6692;50.710;7.180;2024-01-30T08:40:18;14.20;;;12.70;;
13250;SDS011;6692;50.710;7.180;2024-01-30T08:44:57;15.17;;;12.17;;
13250;SDS011;6692;50.710;7.180;2024-01-30T08:46:57;14.37;;;12.87;;
13250;SDS011;6692;50.710;7.180;2024-01-30T08:48:58;15.57;;;12.23;;
13250;SDS011;6692;50.710;7.180;2024-01-30T08:50:59;17.10;;;12.87;;
13250;SDS011;6692;50.710;7.180;2024-01-30T08:52:59;14.50;;;12.47;;
13250;SDS011;6692;50.710;7.180;2024-01-30T08:55:00;15.40;;;12.57;;
13250;SDS011;6692;50.710;7.180;2024-01-30T08:57:01;17.23;;;13.43;;
13250;SDS011;6692;50.710;7.180;2024-01-30T08:59:01;14.17;;;12.10;;
13250;SDS011;6692;50.710;7.180;2024-01-30T09:01:02;16.07;;;12.67;;
13250;SDS011;6692;50.710;7.180;2024-01-30T09:03:03;18.27;;;12.73;;
13250;SDS011;6692;50.710;7.180;2024-01-30T09:05:04;15.97;;;12.57;;
13250;SDS011;6692;50.710;7.180;2024-01-30T09:07:05;15.50;;;12.57;;
13250;SDS011;6692;50.710;7.180;2024-01-30T09:09:06;17.23;;;13.23;;
13250;SDS011;6692;50.710;7.180;2024-01-30T09:11:10;16.00;;;13.33;;
13250;SDS011;6692;50.710;7.180;2024-01-30T09:13:10;15.73;;;13.60;;
13250;SDS011;6692;50.710;7.180;2024-01-30T09:15:11;16.97;;;13.47;;
13250;SDS011;6692;50.710;7.180;2024-01-30T09:17:11;14.33;;;12.30;;
13250;SDS011;6692;50.710;7.180;2024-01-30T09:19:13;13.40;;;11.10;;
13250;SDS011;6692;50.710;7.180;2024-01-30T09:21:14;13.57;;;10.93;;
13250;SDS011;6692;50.710;7.180;2024-01-30T09:23:14;11.63;;;10.53;;
13250;SDS011;6692;50.710;7.180;2024-01-30T09:25:16;14.27;;;11.73;;
13250;SDS011;6692;50.710;7.180;2024-01-30T09:27:16;14.10;;;11.83;;
13250;SDS011;6692;50.710;7.180;2024-01-30T09:29:17;13.20;;;11.53;;
13250;SDS011;6692;50.710;7.180;2024-01-30T09:31:18;12.30;;;10.47;;
13250;SDS011;6692;50.710;7.180;2024-01-30T09:33:18;14.87;;;11.93;;
13250;SDS011;6692;50.710;7.180;2024-01-30T09:35:19;11.80;;;10.60;;
13250;SDS011;6692;50.710;7.180;2024-01-30T09:37:20;15.17;;;11.27;;
13250;SDS011;6692;50.710;7.180;2024-01-30T09:39:20;11.73;;;10.23;;
13250;SDS011;6692;50.710;7.180;2024-01-30T09:41:21;12.73;;;11.40;;
13250;SDS011;6692;50.710;7.180;2024-01-30T09:43:23;12.80;;;11.10;;
13250;SDS011;6692;50.710;7.180;2024-01-30T09:45:24;12.40;;;11.10;;
13250;SDS011;6692;50.710;7.180;2024-01-30T09:47:24;15.67;;;12.40;;
13250;SDS011;6692;50.710;7.180;2024-01-30T09:49:25;13.67;;;11.40;;
13250;SDS011;6692;50.710;7.180;2024-01-30T09:51:25;14.17;;;11.03;;
13250;SDS011;6692;50.710;7.180;2024-01-30T09:53:26;12.93;;;10.73;;
13250;SDS011;6692;50.710;7.180;2024-01-30T09:55:27;12.27;;;10.70;;
13250;SDS011;6692;50.710;7.180;2024-01-30T09:57:28;11.60;;;10.40;;
13250;SDS011;6692;50.710;7.180;2024-01-30T09:59:29;13.47;;;11.80;;
13250;SDS011;6692;50.710;7.180;2024-01-30T10:01:30;15.13;;;11.27;;
13250;SDS011;6692;50.710;7.180;2024-01-30T10:03:31;13.00;;;10.40;;
13250;SDS011;6692;50.710;7.180;2024-01-30T10:05:32;13.83;;;10.03;;
13250;SDS011;6692;50.710;7.180;2024-01-30T10:07:33;13.40;;;9.90;;
13250;SDS011;6692;50.710;7.180;2024-01-30T10:09:34;11.10;;;8.87;;
13250;SDS011;6692;50.710;7.180;2024-01-30T10:11:35;11.03;;;9.57;;
13250;SDS011;6692;50.710;7.180;2024-01-30T10:13:36;11.37;;;10.00;;
13250;SDS011;6692;50.710;7.180;2024-01-30T10:15:38;11.70;;;9.37;;
13250;SDS011;6692;50.710;7.180;2024-01-30T10:17:38;9.97;;;8.60;;
13250;SDS011;6692;50.710;7.180;2024-01-30T10:19:40;8.90;;;8.00;;
13250;SDS011;6692;50.710;7.180;2024-01-30T10:21:40;9.00;;;8.07;;
13250;SDS011;6692;50.710;7.180;2024-01-30T10:23:41;10.70;;;8.43;;
13250;SDS011;6692;50.710;7.180;2024-01-30T10:25:41;10.33;;;9.23;;
13250;SDS011;6692;50.710;7.180;2024-01-30T10:27:42;10.47;;;8.87;;
13250;SDS011;6692;50.710;7.180;2024-01-30T10:29:43;10.70;;;8.77;;
13250;SDS011;6692;50.710;7.180;2024-01-30T10:31:44;10.00;;;7.90;;
13250;SDS011;6692;50.710;7.180;2024-01-30T10:33:45;9.67;;;7.63;;
13250;SDS011;6692;50.710;7.180;2024-01-30T10:35:46;10.00;;;8.53;;
13250;SDS011;6692;50.710;7.180;2024-01-30T10:37:47;8.67;;;7.73;;
13250;SDS011;6692;50.710;7.180;2024-01-30T10:39:48;9.77;;;8.63;;
13250;SDS011;6692;50.710;7.180;2024-01-30T10:41:50;10.87;;;7.83;;
13250;SDS011;6692;50.710;7.180;2024-01-30T10:43:56;8.77;;;7.87;;
13250;SDS011;6692;50.710;7.180;2024-01-30T10:45:54;8.87;;;7.80;;
13250;SDS011;6692;50.710;7.180;2024-01-30T10:47:55;7.90;;;7.10;;
13250;SDS011;6692;50.710;7.180;2024-01-30T10:49:56;8.70;;;7.77;;
13250;SDS011;6692;50.710;7.180;2024-01-30T10:51:57;7.43;;;6.67;;
13250;SDS011;6692;50.710;7.180;2024-01-30T10:53:58;8.77;;;7.87;;
13250;SDS011;6692;50.710;7.180;2024-01-30T10:55:58;8.00;;;7.20;;
13250;SDS011;6692;50.710;7.180;2024-01-30T10:57:59;7.57;;;6.70;;
13250;SDS011;6692;50.710;7.180;2024-01-30T11:00:00;7.33;;;6.57;;
13250;SDS011;6692;50.710;7.180;2024-01-30T11:02:00;7.80;;;6.80;;
13250;SDS011;6692;50.710;7.180;2024-01-30T11:04:02;9.77;;;6.70;;
13250;SDS011;6692;50.710;7.180;2024-01-30T11:06:03;7.10;;;6.40;;
13250;SDS011;6692;50.710;7.180;2024-01-30T11:08:10;7.60;;;6.80;;
13250;SDS011;6692;50.710;7.180;2024-01-30T11:10:11;7.40;;;5.87;;
13250;SDS011;6692;50.710;7.180;2024-01-30T11:12:12;7.27;;;6.57;;
13250;SDS011;6692;50.710;7.180;2024-01-30T11:14:12;6.47;;;5.50;;
13250;SDS011;6692;50.710;7.180;2024-01-30T11:16:13;7.37;;;6.60;;
13250;SDS011;6692;50.710;7.180;2024-01-30T11:20:25;8.20;;;6.73;;
13250;SDS011;6692;50.710;7.180;2024-01-30T11:22:26;8.57;;;6.87;;
13250;SDS011;6692;50.710;7.180;2024-01-30T11:24:27;8.03;;;6.60;;
13250;SDS011;6692;50.710;7.180;2024-01-30T11:26:27;9.77;;;7.30;;
13250;SDS011;6692;50.710;7.180;2024-01-30T11:28:32;8.87;;;6.80;;
13250;SDS011;6692;50.710;7.180;2024-01-30T11:30:33;9.23;;;7.50;;
13250;SDS011;6692;50.710;7.180;2024-01-30T11:32:34;7.33;;;6.63;;
13250;SDS011;6692;50.710;7.180;2024-01-30T11:34:35;7.77;;;6.40;;
13250;SDS011;6692;50.710;7.180;2024-01-30T11:36:35;8.03;;;6.67;;
13250;SDS011;6692;50.710;7.180;2024-01-30T11:38:36;7.23;;;6.53;;
13250;SDS011;6692;50.710;7.180;2024-01-30T11:40:37;8.43;;;6.60;;
13250;SDS011;6692;50.710;7.180;2024-01-30T11:42:38;10.87;;;6.80;;
13250;SDS011;6692;50.710;7.180;2024-01-30T11:44:38;8.13;;;6.83;;
13250;SDS011;6692;50.710;7.180;2024-01-30T11:46:39;8.97;;;6.77;;
13250;SDS011;6692;50.710;7.180;2024-01-30T11:48:40;7.23;;;6.47;;
13250;SDS011;6692;50.710;7.180;2024-01-30T11:50:41;8.63;;;6.20;;
13250;SDS011;6692;50.710;7.180;2024-01-30T11:52:42;6.50;;;5.90;;
13250;SDS011;6692;50.710;7.180;2024-01-30T11:54:43;6.87;;;6.17;;
13250;SDS011;6692;50.710;7.180;2024-01-30T11:56:44;8.10;;;6.80;;
13250;SDS011;6692;50.710;7.180;2024-01-30T11:58:44;7.67;;;6.00;;
13250;SDS011;6692;50.710;7.180;2024-01-30T12:00:52;6.63;;;5.97;;
13250;SDS011;6692;50.710;7.180;2024-01-30T12:02:54;7.30;;;6.03;;
13250;SDS011;6692;50.710;7.180;2024-01-30T12:04:56;6.77;;;6.07;;
13250;SDS011;6692;50.710;7.180;2024-01-30T12:06:57;7.37;;;6.67;;
13250;SDS011;6692;50.710;7.180;2024-01-30T12:08:59;6.33;;;5.70;;
13250;SDS011;6692;50.710;7.180;2024-01-30T12:10:59;6.23;;;5.63;;
13250;SDS011;6692;50.710;7.180;2024-01-30T12:13:00;8.20;;;5.90;;
13250;SDS011;6692;50.710;7.180;2024-01-30T12:15:00;6.97;;;5.63;;
13250;SDS011;6692;50.710;7.180;2024-01-30T12:17:01;5.57;;;4.93;;
13250;SDS011;6692;50.710;7.180;2024-01-30T12:19:03;6.43;;;5.70;;
13250;SDS011;6692;50.710;7.180;2024-01-30T12:21:04;6.10;;;5.50;;
13250;SDS011;6692;50.710;7.180;2024-01-30T12:23:05;6.07;;;5.47;;
13250;SDS011;6692;50.710;7.180;2024-01-30T12:25:08;5.97;;;5.37;;
13250;SDS011;6692;50.710;7.180;2024-01-30T12:27:10;5.83;;;5.33;;
13250;SDS011;6692;50.710;7.180;2024-01-30T12:29:12;6.70;;;5.63;;
13250;SDS011;6692;50.710;7.180;2024-01-30T12:31:14;6.00;;;5.23;;